sensor_id;sensor_type;location;lat;lon;timestamp;pressure;altitude;pressure_sealevel;temperature;humidity
32320;BME280;19080;51.750;5.888;2023-05-03T00:01:45;102661.31;;;6.09;100.00
32320;BME280;19080;51.750;5.888;2023-05-03T00:04:15;102604.63;;;5.74;100.00
32320;BME280;19080;51.750;5.888;2023-05-03T00:06:43;102572.69;;;5.55;100.00
32320;BME280;19080;51.750;5.888;2023-05-03T00:09:10;102686.34;;;6.15;100.00
32320;BME280;19080;51.750;5.888;2023-05-03T00:11:36;102584.22;;;5.57;100.00
32320;BME280;19080;51.750;5.888;2023-05-03T00:14:03;102657.28;;;6.01;100.00
32320;BME280;19080;51.750;5.888;2023-05-03T00:16:30;102666.69;;;6.10;100.00
32320;BME280;19080;51.750;5.888;2023-05-03T00:18:56;102552.88;;;5.34;100.00
32320;BME280;19080;51.750;5.888;2023-05-03T00:21:23;102662.94;;;6.07;100.00
32320;BME280;19080;51.750;5.888;2023-05-03T00:23:50;102674.69;;;6.12;100.00
32320;BME280;19080;51.750;5.888;2023-05-03T00:26:16;102564.78;;;5.55;100.00
32320;BME280;19080;51.750;5.888;2023-05-03T00:28:44;102663.13;;;6.10;100.00
32320;BME280;19080;51.750;5.888;2023-05-03T00:31:11;102660.31;;;6.07;100.00
32320;BME280;19080;51.750;5.888;2023-05-03T00:33:38;102690.16;;;6.20;100.00
32320;BME280;19080;51.750;5.888;2023-05-03T00:36:09;102579.16;;;5.60;100.00
32320;BME280;19080;51.750;5.888;2023-05-03T00:38:37;102643.09;;;5.99;100.00
32320;BME280;19080;51.750;5.888;2023-05-03T00:41:04;102686.25;;;6.14;100.00
32320;BME280;19080;51.750;5.888;2023-05-03T00:43:33;102666.19;;;6.03;100.00
32320;BME280;19080;51.750;5.888;2023-05-03T00:46:01;102656.72;;;5.92;100.00
32320;BME280;19080;51.750;5.888;2023-05-03T00:48:42;102681.19;;;6.04;100.00
32320;BME280;19080;51.750;5.888;2023-05-03T00:51:12;102696.41;;;6.08;100.00
32320;BME280;19080;51.750;5.888;2023-05-03T00:53:43;102687.09;;;6.00;100.00
32320;BME280;19080;51.750;5.888;2023-05-03T00:56:10;102696.91;;;6.02;100.00
32320;BME280;19080;51.750;5.888;2023-05-03T00:58:37;102695.63;;;5.96;100.00
32320;BME280;19080;51.750;5.888;2023-05-03T01:01:06;102641.97;;;5.54;100.00
32320;BME280;19080;51.750;5.888;2023-05-03T01:03:34;102684.25;;;5.83;100.00
32320;BME280;19080;51.750;5.888;2023-05-03T01:06:14;102704.25;;;5.93;100.00
32320;BME280;19080;51.750;5.888;2023-05-03T01:11:36;102694.41;;;5.77;100.00
32320;BME280;19080;51.750;5.888;2023-05-03T01:17:01;102667.28;;;5.65;100.00
32320;BME280;19080;51.750;5.888;2023-05-03T01:19:43;102675.81;;;5.61;100.00
32320;BME280;19080;51.750;5.888;2023-05-03T01:22:20;102702.03;;;5.73;100.00
32320;BME280;19080;51.750;5.888;2023-05-03T01:25:02;102591.84;;;5.11;100.00
32320;BME280;19080;51.750;5.888;2023-05-03T01:27:31;102584.34;;;5.04;100.00
32320;BME280;19080;51.750;5.888;2023-05-03T01:29:58;102698.31;;;5.56;100.00
32320;BME280;19080;51.750;5.888;2023-05-03T01:35:27;102683.72;;;5.48;100.00
32320;BME280;19080;51.750;5.888;2023-05-03T01:37:56;102712.56;;;5.60;100.00
32320;BME280;19080;51.750;5.888;2023-05-03T01:40:25;102696.28;;;5.52;100.00
32320;BME280;19080;51.750;5.888;2023-05-03T01:42:54;102717.03;;;5.61;100.00
32320;BME280;19080;51.750;5.888;2023-05-03T01:45:23;102611.47;;;5.03;100.00
32320;BME280;19080;51.750;5.888;2023-05-03T01:47:51;102690.81;;;5.49;100.00
32320;BME280;19080;51.750;5.888;2023-05-03T01:50:18;102577.69;;;4.83;100.00
32320;BME280;19080;51.750;5.888;2023-05-03T01:52:46;102692.44;;;5.47;100.00
32320;BME280;19080;51.750;5.888;2023-05-03T01:55:15;102701.13;;;5.46;100.00
32320;BME280;19080;51.750;5.888;2023-05-03T01:57:41;102692.03;;;5.41;100.00
32320;BME280;19080;51.750;5.888;2023-05-03T02:00:08;102604.00;;;4.96;100.00
32320;BME280;19080;51.750;5.888;2023-05-03T02:02:38;102699.81;;;5.39;100.00
32320;BME280;19080;51.750;5.888;2023-05-03T02:05:05;102703.88;;;5.47;100.00
32320;BME280;19080;51.750;5.888;2023-05-03T02:07:32;102694.06;;;5.45;100.00
32320;BME280;19080;51.750;5.888;2023-05-03T02:09:59;102692.84;;;5.40;100.00
32320;BME280;19080;51.750;5.888;2023-05-03T02:12:26;102706.63;;;5.49;100.00
32320;BME280;19080;51.750;5.888;2023-05-03T02:14:54;102710.47;;;5.54;100.00
32320;BME280;19080;51.750;5.888;2023-05-03T02:17:21;102707.91;;;5.55;100.00
32320;BME280;19080;51.750;5.888;2023-05-03T02:19:52;102686.75;;;5.41;100.00
32320;BME280;19080;51.750;5.888;2023-05-03T02:22:19;102617.56;;;5.02;100.00
32320;BME280;19080;51.750;5.888;2023-05-03T02:24:46;102600.94;;;4.90;100.00
32320;BME280;19080;51.750;5.888;2023-05-03T02:27:13;102706.81;;;5.52;100.00
32320;BME280;19080;51.750;5.888;2023-05-03T02:29:42;102690.09;;;5.38;100.00
32320;BME280;19080;51.750;5.888;2023-05-03T02:32:09;102682.09;;;5.37;100.00
32320;BME280;19080;51.750;5.888;2023-05-03T02:34:37;102688.47;;;5.40;100.00
32320;BME280;19080;51.750;5.888;2023-05-03T02:37:05;102683.31;;;5.29;100.00
32320;BME280;19080;51.750;5.888;2023-05-03T02:39:33;102698.91;;;5.39;100.00
32320;BME280;19080;51.750;5.888;2023-05-03T02:41:59;102593.38;;;4.81;100.00
32320;BME280;19080;51.750;5.888;2023-05-03T02:44:27;102673.59;;;5.28;100.00
32320;BME280;19080;51.750;5.888;2023-05-03T02:46:53;102605.31;;;4.89;100.00
32320;BME280;19080;51.750;5.888;2023-05-03T02:49:20;102585.16;;;4.77;100.00
32320;BME280;19080;51.750;5.888;2023-05-03T02:51:47;102658.22;;;5.20;100.00
32320;BME280;19080;51.750;5.888;2023-05-03T02:54:14;102666.84;;;5.18;100.00
32320;BME280;19080;51.750;5.888;2023-05-03T02:56:40;102643.16;;;5.05;100.00
32320;BME280;19080;51.750;5.888;2023-05-03T02:59:07;102651.16;;;5.06;100.00
32320;BME280;19080;51.750;5.888;2023-05-03T03:01:33;102675.66;;;5.18;100.00
32320;BME280;19080;51.750;5.888;2023-05-03T03:04:00;102635.16;;;5.03;100.00
32320;BME280;19080;51.750;5.888;2023-05-03T03:06:29;102634.25;;;5.03;100.00
32320;BME280;19080;51.750;5.888;2023-05-03T03:08:57;102542.47;;;4.54;100.00
32320;BME280;19080;51.750;5.888;2023-05-03T03:11:24;102625.44;;;5.02;100.00
32320;BME280;19080;51.750;5.888;2023-05-03T03:13:51;102625.56;;;5.04;100.00
32320;BME280;19080;51.750;5.888;2023-05-03T03:16:19;102633.34;;;5.02;100.00
32320;BME280;19080;51.750;5.888;2023-05-03T03:18:46;102588.00;;;4.80;100.00
32320;BME280;19080;51.750;5.888;2023-05-03T03:21:13;102533.16;;;4.46;100.00
32320;BME280;19080;51.750;5.888;2023-05-03T03:23:40;102621.41;;;4.94;100.00
32320;BME280;19080;51.750;5.888;2023-05-03T03:26:07;102625.84;;;4.95;100.00
32320;BME280;19080;51.750;5.888;2023-05-03T03:28:33;102661.91;;;5.09;100.00
32320;BME280;19080;51.750;5.888;2023-05-03T03:31:05;102661.69;;;5.06;100.00
32320;BME280;19080;51.750;5.888;2023-05-03T03:33:32;102648.72;;;4.96;100.00
32320;BME280;19080;51.750;5.888;2023-05-03T03:36:06;102673.84;;;5.04;100.00
32320;BME280;19080;51.750;5.888;2023-05-03T03:38:36;102664.50;;;4.96;100.00
32320;BME280;19080;51.750;5.888;2023-05-03T03:41:07;102492.63;;;3.91;100.00
32320;BME280;19080;51.750;5.888;2023-05-03T03:43:34;102647.09;;;4.72;100.00
32320;BME280;19080;51.750;5.888;2023-05-03T03:46:04;102634.53;;;4.68;100.00
32320;BME280;19080;51.750;5.888;2023-05-03T03:48:32;102574.50;;;4.36;100.00
32320;BME280;19080;51.750;5.888;2023-05-03T03:50:59;102637.97;;;4.67;100.00
32320;BME280;19080;51.750;5.888;2023-05-03T03:53:34;102654.78;;;4.82;100.00
32320;BME280;19080;51.750;5.888;2023-05-03T03:56:01;102669.16;;;4.87;100.00
32320;BME280;19080;51.750;5.888;2023-05-03T03:58:30;102633.91;;;4.58;100.00
32320;BME280;19080;51.750;5.888;2023-05-03T04:00:57;102657.50;;;4.70;100.00
32320;BME280;19080;51.750;5.888;2023-05-03T04:03:27;102628.03;;;4.49;100.00
32320;BME280;19080;51.750;5.888;2023-05-03T04:05:54;102641.00;;;4.60;100.00
32320;BME280;19080;51.750;5.888;2023-05-03T04:08:21;102630.53;;;4.48;100.00
32320;BME280;19080;51.750;5.888;2023-05-03T04:10:48;102646.25;;;4.60;100.00
32320;BME280;19080;51.750;5.888;2023-05-03T04:13:15;102667.09;;;4.70;100.00
32320;BME280;19080;51.750;5.888;2023-05-03T04:15:43;102672.06;;;4.65;100.00
32320;BME280;19080;51.750;5.888;2023-05-03T04:18:11;102677.41;;;4.67;100.00
32320;BME280;19080;51.750;5.888;2023-05-03T04:20:40;102683.50;;;4.66;100.00
32320;BME280;19080;51.750;5.888;2023-05-03T04:23:08;102651.78;;;4.51;100.00
32320;BME280;19080;51.750;5.888;2023-05-03T04:25:34;102671.16;;;4.65;100.00
32320;BME280;19080;51.750;5.888;2023-05-03T04:28:10;102691.00;;;4.73;100.00
32320;BME280;19080;51.750;5.888;2023-05-03T04:30:41;102582.94;;;4.18;100.00
32320;BME280;19080;51.750;5.888;2023-05-03T04:33:12;102665.56;;;4.60;100.00
32320;BME280;19080;51.750;5.888;2023-05-03T04:35:40;102581.22;;;4.19;100.00
32320;BME280;19080;51.750;5.888;2023-05-03T04:38:10;102669.94;;;4.73;100.00
32320;BME280;19080;51.750;5.888;2023-05-03T04:40:37;102646.47;;;4.63;100.00
32320;BME280;19080;51.750;5.888;2023-05-03T04:43:07;102704.59;;;4.92;100.00
32320;BME280;19080;51.750;5.888;2023-05-03T04:45:38;102659.44;;;4.73;100.00
32320;BME280;19080;51.750;5.888;2023-05-03T04:48:08;102661.47;;;4.77;100.00
32320;BME280;19080;51.750;5.888;2023-05-03T04:50:35;102669.16;;;4.87;100.00
32320;BME280;19080;51.750;5.888;2023-05-03T04:53:04;102608.53;;;4.59;100.00
32320;BME280;19080;51.750;5.888;2023-05-03T04:55:34;102683.94;;;4.98;100.00
32320;BME280;19080;51.750;5.888;2023-05-03T04:58:03;102685.47;;;5.08;100.00
32320;BME280;19080;51.750;5.888;2023-05-03T05:00:29;102690.25;;;5.13;100.00
32320;BME280;19080;51.750;5.888;2023-05-03T05:03:02;102702.16;;;5.21;100.00
32320;BME280;19080;51.750;5.888;2023-05-03T05:05:30;102732.75;;;5.46;100.00
32320;BME280;19080;51.750;5.888;2023-05-03T05:07:59;102703.78;;;5.33;100.00
32320;BME280;19080;51.750;5.888;2023-05-03T05:10:36;102650.56;;;5.10;100.00
32320;BME280;19080;51.750;5.888;2023-05-03T05:13:04;102705.81;;;5.50;100.00
32320;BME280;19080;51.750;5.888;2023-05-03T05:15:31;102613.72;;;4.97;100.00
32320;BME280;19080;51.750;5.888;2023-05-03T05:17:59;102634.16;;;5.14;100.00
32320;BME280;19080;51.750;5.888;2023-05-03T05:20:26;102730.59;;;5.80;100.00
32320;BME280;19080;51.750;5.888;2023-05-03T05:22:53;102733.72;;;5.87;100.00
32320;BME280;19080;51.750;5.888;2023-05-03T05:25:20;102664.66;;;5.52;100.00
32320;BME280;19080;51.750;5.888;2023-05-03T05:27:46;102757.22;;;6.11;100.00
32320;BME280;19080;51.750;5.888;2023-05-03T05:30:13;102652.91;;;5.60;100.00
32320;BME280;19080;51.750;5.888;2023-05-03T05:32:41;102672.22;;;5.74;100.00
32320;BME280;19080;51.750;5.888;2023-05-03T05:35:10;102645.69;;;5.71;100.00
32320;BME280;19080;51.750;5.888;2023-05-03T05:37:37;102706.03;;;6.07;100.00
32320;BME280;19080;51.750;5.888;2023-05-03T05:40:05;102745.97;;;6.41;100.00
32320;BME280;19080;51.750;5.888;2023-05-03T05:42:39;102744.72;;;6.49;100.00
32320;BME280;19080;51.750;5.888;2023-05-03T05:45:06;102758.06;;;6.66;100.00
32320;BME280;19080;51.750;5.888;2023-05-03T05:47:34;102649.13;;;6.11;100.00
32320;BME280;19080;51.750;5.888;2023-05-03T05:50:02;102773.56;;;6.89;100.00
32320;BME280;19080;51.750;5.888;2023-05-03T05:52:41;102782.84;;;6.97;100.00
32320;BME280;19080;51.750;5.888;2023-05-03T05:55:08;102767.00;;;6.97;100.00
32320;BME280;19080;51.750;5.888;2023-05-03T05:57:39;102669.41;;;6.55;100.00
32320;BME280;19080;51.750;5.888;2023-05-03T06:00:07;102739.97;;;7.01;100.00
32320;BME280;19080;51.750;5.888;2023-05-03T06:02:40;102775.94;;;7.29;100.00
32320;BME280;19080;51.750;5.888;2023-05-03T06:05:11;102730.94;;;7.12;100.00
32320;BME280;19080;51.750;5.888;2023-05-03T06:07:37;102749.69;;;7.32;100.00
32320;BME280;19080;51.750;5.888;2023-05-03T06:10:05;102745.78;;;7.40;100.00
32320;BME280;19080;51.750;5.888;2023-05-03T06:12:34;102662.19;;;7.11;100.00
32320;BME280;19080;51.750;5.888;2023-05-03T06:15:04;102768.31;;;8.10;100.00
32320;BME280;19080;51.750;5.888;2023-05-03T06:17:35;102744.25;;;8.53;100.00
32320;BME280;19080;51.750;5.888;2023-05-03T06:20:02;102742.84;;;8.93;100.00
32320;BME280;19080;51.750;5.888;2023-05-03T06:22:30;102668.00;;;8.97;100.00
32320;BME280;19080;51.750;5.888;2023-05-03T06:24:57;102771.34;;;9.85;100.00
32320;BME280;19080;51.750;5.888;2023-05-03T06:27:25;102755.06;;;9.95;100.00
32320;BME280;19080;51.750;5.888;2023-05-03T06:29:52;102754.38;;;10.55;100.00
32320;BME280;19080;51.750;5.888;2023-05-03T06:32:19;102759.88;;;10.79;100.00
32320;BME280;19080;51.750;5.888;2023-05-03T06:34:48;102761.06;;;11.26;100.00
32320;BME280;19080;51.750;5.888;2023-05-03T06:37:16;102759.53;;;11.31;99.55
32320;BME280;19080;51.750;5.888;2023-05-03T06:39:43;102764.31;;;11.39;97.03
32320;BME280;19080;51.750;5.888;2023-05-03T06:42:10;102737.22;;;11.48;93.11
32320;BME280;19080;51.750;5.888;2023-05-03T06:44:39;102762.38;;;11.77;91.80
32320;BME280;19080;51.750;5.888;2023-05-03T06:47:06;102750.25;;;12.06;88.37
32320;BME280;19080;51.750;5.888;2023-05-03T06:49:33;102634.59;;;11.53;86.59
32320;BME280;19080;51.750;5.888;2023-05-03T06:52:00;102758.56;;;12.37;84.39
32320;BME280;19080;51.750;5.888;2023-05-03T06:54:27;102744.63;;;12.45;83.39
32320;BME280;19080;51.750;5.888;2023-05-03T06:56:53;102754.72;;;12.77;81.08
32320;BME280;19080;51.750;5.888;2023-05-03T06:59:20;102729.91;;;12.78;79.94
32320;BME280;19080;51.750;5.888;2023-05-03T07:01:46;102726.50;;;13.08;74.62
32320;BME280;19080;51.750;5.888;2023-05-03T07:04:13;102740.31;;;13.20;73.95
32320;BME280;19080;51.750;5.888;2023-05-03T07:06:40;102657.72;;;12.97;74.95
32320;BME280;19080;51.750;5.888;2023-05-03T07:09:21;102728.31;;;13.86;71.83
32320;BME280;19080;51.750;5.888;2023-05-03T07:12:07;102742.13;;;14.31;70.00
32320;BME280;19080;51.750;5.888;2023-05-03T07:14:34;102724.56;;;14.10;67.44
32320;BME280;19080;51.750;5.888;2023-05-03T07:17:00;102683.63;;;13.81;65.38
32320;BME280;19080;51.750;5.888;2023-05-03T07:19:27;102726.75;;;14.23;66.37
32320;BME280;19080;51.750;5.888;2023-05-03T07:21:54;102662.03;;;14.03;64.99
32320;BME280;19080;51.750;5.888;2023-05-03T07:24:20;102729.72;;;14.62;60.84
32320;BME280;19080;51.750;5.888;2023-05-03T07:26:47;102738.91;;;14.42;60.59
32320;BME280;19080;51.750;5.888;2023-05-03T07:29:14;102733.19;;;14.29;61.24
32320;BME280;19080;51.750;5.888;2023-05-03T07:31:41;102723.25;;;14.85;59.19
32320;BME280;19080;51.750;5.888;2023-05-03T07:34:07;102708.91;;;14.82;59.58
32320;BME280;19080;51.750;5.888;2023-05-03T07:36:34;102634.06;;;14.50;58.87
32320;BME280;19080;51.750;5.888;2023-05-03T07:39:00;102725.06;;;15.54;59.20
32320;BME280;19080;51.750;5.888;2023-05-03T07:41:27;102723.09;;;15.47;56.22
32320;BME280;19080;51.750;5.888;2023-05-03T07:43:54;102639.13;;;15.06;55.68
32320;BME280;19080;51.750;5.888;2023-05-03T07:46:21;102733.38;;;15.65;55.41
32320;BME280;19080;51.750;5.888;2023-05-03T07:48:48;102676.50;;;15.75;51.60
32320;BME280;19080;51.750;5.888;2023-05-03T07:51:15;102678.38;;;15.79;51.60
32320;BME280;19080;51.750;5.888;2023-05-03T07:53:41;102663.22;;;15.79;52.04
32320;BME280;19080;51.750;5.888;2023-05-03T07:56:08;102702.16;;;16.04;53.15
32320;BME280;19080;51.750;5.888;2023-05-03T07:58:35;102705.41;;;16.30;51.37
32320;BME280;19080;51.750;5.888;2023-05-03T08:01:06;102647.34;;;16.31;48.31
32320;BME280;19080;51.750;5.888;2023-05-03T08:03:33;102698.81;;;16.56;48.05
32320;BME280;19080;51.750;5.888;2023-05-03T08:05:59;102697.41;;;16.32;49.76
32320;BME280;19080;51.750;5.888;2023-05-03T08:08:27;102622.88;;;16.12;50.44
32320;BME280;19080;51.750;5.888;2023-05-03T08:10:55;102686.66;;;16.72;48.29
32320;BME280;19080;51.750;5.888;2023-05-03T08:13:22;102595.34;;;16.65;47.58
32320;BME280;19080;51.750;5.888;2023-05-03T08:15:49;102678.78;;;16.81;46.33
32320;BME280;19080;51.750;5.888;2023-05-03T08:18:16;102684.75;;;16.24;48.22
32320;BME280;19080;51.750;5.888;2023-05-03T08:20:43;102618.59;;;15.80;48.95
32320;BME280;19080;51.750;5.888;2023-05-03T08:23:10;102680.81;;;16.07;47.95
32320;BME280;19080;51.750;5.888;2023-05-03T08:25:36;102672.44;;;15.54;49.10
32320;BME280;19080;51.750;5.888;2023-05-03T08:28:03;102664.19;;;15.83;49.30
32320;BME280;19080;51.750;5.888;2023-05-03T08:30:30;102686.28;;;16.13;47.85
32320;BME280;19080;51.750;5.888;2023-05-03T08:32:56;102619.19;;;15.67;48.52
32320;BME280;19080;51.750;5.888;2023-05-03T08:35:23;102677.88;;;15.97;48.19
32320;BME280;19080;51.750;5.888;2023-05-03T08:37:51;102668.78;;;15.88;48.72
32320;BME280;19080;51.750;5.888;2023-05-03T08:40:20;102668.53;;;16.18;48.59
32320;BME280;19080;51.750;5.888;2023-05-03T08:42:47;102663.84;;;16.08;47.30
32320;BME280;19080;51.750;5.888;2023-05-03T08:45:16;102676.63;;;15.81;47.86
32320;BME280;19080;51.750;5.888;2023-05-03T08:47:43;102680.53;;;15.95;48.09
32320;BME280;19080;51.750;5.888;2023-05-03T08:50:12;102629.06;;;15.69;48.55
32320;BME280;19080;51.750;5.888;2023-05-03T08:52:40;102684.22;;;15.62;49.00
32320;BME280;19080;51.750;5.888;2023-05-03T08:55:09;102669.19;;;15.68;49.43
32320;BME280;19080;51.750;5.888;2023-05-03T08:57:36;102684.38;;;15.69;49.09
32320;BME280;19080;51.750;5.888;2023-05-03T09:00:04;102531.47;;;14.78;50.15
32320;BME280;19080;51.750;5.888;2023-05-03T09:02:39;102614.63;;;15.62;48.97
32320;BME280;19080;51.750;5.888;2023-05-03T09:08:06;102657.44;;;16.87;48.31
32320;BME280;19080;51.750;5.888;2023-05-03T09:10:39;102593.00;;;16.84;49.78
32320;BME280;19080;51.750;5.888;2023-05-03T09:13:07;102663.28;;;17.69;46.42
32320;BME280;19080;51.750;5.888;2023-05-03T09:15:34;102651.34;;;18.11;43.84
32320;BME280;19080;51.750;5.888;2023-05-03T09:18:17;102646.31;;;17.72;46.03
32320;BME280;19080;51.750;5.888;2023-05-03T09:20:46;102658.94;;;17.79;44.74
32320;BME280;19080;51.750;5.888;2023-05-03T09:25:52;102594.53;;;17.82;43.86
32320;BME280;19080;51.750;5.888;2023-05-03T09:28:19;102677.00;;;18.57;43.08
32320;BME280;19080;51.750;5.888;2023-05-03T09:30:47;102677.78;;;18.47;43.39
32320;BME280;19080;51.750;5.888;2023-05-03T09:33:15;102673.31;;;18.47;42.63
32320;BME280;19080;51.750;5.888;2023-05-03T09:35:56;102663.59;;;18.60;43.39
32320;BME280;19080;51.750;5.888;2023-05-03T09:38:27;102686.25;;;18.80;43.88
32320;BME280;19080;51.750;5.888;2023-05-03T09:40:54;102665.28;;;19.43;42.25
32320;BME280;19080;51.750;5.888;2023-05-03T09:43:21;102673.88;;;20.21;41.11
32320;BME280;19080;51.750;5.888;2023-05-03T09:45:48;102646.22;;;20.73;39.86
32320;BME280;19080;51.750;5.888;2023-05-03T09:48:15;102666.91;;;20.77;38.28
32320;BME280;19080;51.750;5.888;2023-05-03T09:50:42;102586.63;;;20.08;40.31
32320;BME280;19080;51.750;5.888;2023-05-03T09:53:09;102603.81;;;20.33;39.30
32320;BME280;19080;51.750;5.888;2023-05-03T09:55:37;102633.56;;;20.54;38.60
32320;BME280;19080;51.750;5.888;2023-05-03T09:58:05;102666.00;;;20.69;37.72
32320;BME280;19080;51.750;5.888;2023-05-03T10:00:35;102639.91;;;20.65;37.92
32320;BME280;19080;51.750;5.888;2023-05-03T10:03:09;102610.16;;;20.39;38.88
32320;BME280;19080;51.750;5.888;2023-05-03T10:05:47;102648.00;;;21.05;37.80
32320;BME280;19080;51.750;5.888;2023-05-03T10:08:23;102656.13;;;21.05;37.92
32320;BME280;19080;51.750;5.888;2023-05-03T10:10:53;102646.22;;;20.98;37.92
32320;BME280;19080;51.750;5.888;2023-05-03T10:13:21;102651.63;;;21.02;37.09
32320;BME280;19080;51.750;5.888;2023-05-03T10:15:53;102646.22;;;20.96;37.03
32320;BME280;19080;51.750;5.888;2023-05-03T10:18:25;102646.94;;;20.27;37.80
32320;BME280;19080;51.750;5.888;2023-05-03T10:20:58;102650.63;;;20.39;38.09
32320;BME280;19080;51.750;5.888;2023-05-03T10:23:27;102635.41;;;20.76;37.50
32320;BME280;19080;51.750;5.888;2023-05-03T10:28:33;102639.03;;;21.07;37.17
32320;BME280;19080;51.750;5.888;2023-05-03T10:30:59;102566.13;;;20.63;36.94
32320;BME280;19080;51.750;5.888;2023-05-03T10:35:57;102580.50;;;20.90;38.53
32320;BME280;19080;51.750;5.888;2023-05-03T10:38:28;102630.91;;;21.12;36.94
32320;BME280;19080;51.750;5.888;2023-05-03T10:40:55;102626.41;;;21.55;37.11
32320;BME280;19080;51.750;5.888;2023-05-03T10:46:01;102636.25;;;21.87;36.48
32320;BME280;19080;51.750;5.888;2023-05-03T10:48:29;102631.72;;;21.90;36.09
32320;BME280;19080;51.750;5.888;2023-05-03T10:50:57;102625.38;;;22.00;36.49
32320;BME280;19080;51.750;5.888;2023-05-03T10:53:43;102647.00;;;22.14;35.40
32320;BME280;19080;51.750;5.888;2023-05-03T10:56:12;102585.72;;;21.99;35.13
32320;BME280;19080;51.750;5.888;2023-05-03T10:58:44;102630.78;;;22.16;34.91
32320;BME280;19080;51.750;5.888;2023-05-03T11:01:16;102637.84;;;22.44;35.03
32320;BME280;19080;51.750;5.888;2023-05-03T11:04:01;102635.00;;;22.64;33.98
32320;BME280;19080;51.750;5.888;2023-05-03T11:06:33;102556.50;;;22.62;34.15
32320;BME280;19080;51.750;5.888;2023-05-03T11:09:04;102605.03;;;23.86;31.99
32320;BME280;19080;51.750;5.888;2023-05-03T11:11:33;102627.75;;;23.76;31.70
32320;BME280;19080;51.750;5.888;2023-05-03T11:14:00;102608.34;;;23.28;33.09
32320;BME280;19080;51.750;5.888;2023-05-03T11:16:28;102615.44;;;23.42;34.33
32320;BME280;19080;51.750;5.888;2023-05-03T11:18:54;102612.13;;;23.98;31.80
32320;BME280;19080;51.750;5.888;2023-05-03T11:21:22;102595.22;;;23.76;31.74
32320;BME280;19080;51.750;5.888;2023-05-03T11:23:48;102549.28;;;24.30;31.09
32320;BME280;19080;51.750;5.888;2023-05-03T11:26:15;102555.13;;;23.99;31.28
32320;BME280;19080;51.750;5.888;2023-05-03T11:28:42;102588.28;;;24.24;32.14
32320;BME280;19080;51.750;5.888;2023-05-03T11:31:10;102605.50;;;24.22;31.65
32320;BME280;19080;51.750;5.888;2023-05-03T11:33:38;102564.03;;;24.11;31.45
32320;BME280;19080;51.750;5.888;2023-05-03T11:36:06;102591.53;;;24.49;31.63
32320;BME280;19080;51.750;5.888;2023-05-03T11:38:37;102544.13;;;24.12;31.72
32320;BME280;19080;51.750;5.888;2023-05-03T11:41:14;102599.97;;;24.89;31.97
32320;BME280;19080;51.750;5.888;2023-05-03T11:43:43;102547.00;;;24.61;30.57
32320;BME280;19080;51.750;5.888;2023-05-03T11:46:12;102595.56;;;24.81;29.99
32320;BME280;19080;51.750;5.888;2023-05-03T11:48:43;102555.06;;;24.65;30.60
32320;BME280;19080;51.750;5.888;2023-05-03T11:51:10;102575.59;;;24.85;30.07
32320;BME280;19080;51.750;5.888;2023-05-03T11:53:38;102569.75;;;24.54;29.59
32320;BME280;19080;51.750;5.888;2023-05-03T11:56:07;102579.72;;;24.52;30.40
32320;BME280;19080;51.750;5.888;2023-05-03T11:58:48;102547.59;;;24.80;30.66
32320;BME280;19080;51.750;5.888;2023-05-03T12:01:26;102561.50;;;25.15;30.44
32320;BME280;19080;51.750;5.888;2023-05-03T12:04:01;102570.72;;;24.48;30.34
32320;BME280;19080;51.750;5.888;2023-05-03T12:06:30;102550.44;;;24.14;30.89
32320;BME280;19080;51.750;5.888;2023-05-03T12:09:02;102557.81;;;24.02;30.25
32320;BME280;19080;51.750;5.888;2023-05-03T12:11:29;102556.75;;;24.14;30.23
32320;BME280;19080;51.750;5.888;2023-05-03T12:14:05;102539.59;;;24.12;30.31
32320;BME280;19080;51.750;5.888;2023-05-03T12:16:50;102545.19;;;24.00;30.54
32320;BME280;19080;51.750;5.888;2023-05-03T12:19:27;102527.16;;;24.57;30.69
32320;BME280;19080;51.750;5.888;2023-05-03T12:21:58;102544.16;;;25.22;29.21
32320;BME280;19080;51.750;5.888;2023-05-03T12:24:44;102525.75;;;25.37;29.55
32320;BME280;19080;51.750;5.888;2023-05-03T12:27:14;102531.50;;;25.21;28.66
32320;BME280;19080;51.750;5.888;2023-05-03T12:29:44;102533.34;;;25.19;28.74
32320;BME280;19080;51.750;5.888;2023-05-03T12:32:13;102526.66;;;25.37;29.61
32320;BME280;19080;51.750;5.888;2023-05-03T12:34:39;102516.34;;;24.54;29.59
32320;BME280;19080;51.750;5.888;2023-05-03T12:37:07;102524.78;;;25.41;29.35
32320;BME280;19080;51.750;5.888;2023-05-03T12:39:37;102450.84;;;24.73;28.40
32320;BME280;19080;51.750;5.888;2023-05-03T12:42:05;102522.75;;;24.50;28.79
32320;BME280;19080;51.750;5.888;2023-05-03T12:44:36;102512.56;;;24.63;28.99
32320;BME280;19080;51.750;5.888;2023-05-03T12:47:08;102490.47;;;25.34;28.81
32320;BME280;19080;51.750;5.888;2023-05-03T12:49:35;102496.34;;;25.57;28.76
32320;BME280;19080;51.750;5.888;2023-05-03T12:52:05;102491.44;;;25.76;28.43
32320;BME280;19080;51.750;5.888;2023-05-03T12:54:51;102489.41;;;25.85;28.51
32320;BME280;19080;51.750;5.888;2023-05-03T12:57:29;102488.84;;;26.48;27.76
32320;BME280;19080;51.750;5.888;2023-05-03T12:59:56;102403.88;;;25.57;27.74
32320;BME280;19080;51.750;5.888;2023-05-03T13:02:29;102481.22;;;26.24;27.42
32320;BME280;19080;51.750;5.888;2023-05-03T13:04:58;102476.16;;;26.47;27.43
32320;BME280;19080;51.750;5.888;2023-05-03T13:07:28;102407.19;;;26.08;27.58
32320;BME280;19080;51.750;5.888;2023-05-03T13:09:58;102438.31;;;26.35;26.94
32320;BME280;19080;51.750;5.888;2023-05-03T13:12:27;102461.81;;;26.01;27.32
32320;BME280;19080;51.750;5.888;2023-05-03T13:14:55;102456.56;;;25.94;27.90
32320;BME280;19080;51.750;5.888;2023-05-03T13:17:22;102440.22;;;25.94;27.42
32320;BME280;19080;51.750;5.888;2023-05-03T13:19:49;102397.28;;;25.69;28.41
32320;BME280;19080;51.750;5.888;2023-05-03T13:22:17;102446.09;;;26.13;27.08